Terminal Aerodrome Forecast
Issued by NWS St Louis, MO

Home | Current Version | Previous Version | Graphics & Text | Print | Product List | Glossary On
Versions: 1 2 3 4 5 6 7 8 9 10 11 12 13 14 15 16 17 18 19 20 21 22 23 24 25 26 27
862
FTUS43 KLSX 130800 AAA
TAFSTL
TAF AMD
KSTL 130800Z 1308/1412 35012KT P6SM SKC
     FM131000 34008KT P6SM FEW200
     FM132100 04004KT P6SM BKN200
     FM140200 10006KT P6SM BKN080=

USA.gov is the U.S. government's official web portal to all federal, state and local government web resources and services.